< < Back
Terminal Aerodrome Forecast


Current Version              Previous Versions:   1  2  3  4  5  6  7  8  9  

Terminal Aerodrome Forecast

689
FTUS42 KFFC 260540
TAFMCN
TAF
KMCN 260540Z 2606/2706 VRB03KT P6SM SCT150
     FM261600 20008KT P6SM SCT040 PROB30 2619/2623 4SM -TSRA BR
      BKN035CB
     FM270200 19005KT P6SM SCT250=

Latest METAR

996
SAUS80 KWBC 262100 RRA
MTRMCN
METAR KMCN 262053Z 18007KT 10SM SCT060 SCT085 36/21 A2999 RMK AO2 SLP149
T03610206 58018


USA.gov is the U.S. government's official web portal to all federal, state and local government web resources and services.